createdAt,value
2018-07-21T00:02:19.303Z,72.70
2018-07-21T00:04:47.082Z,72.00
2018-07-21T00:07:15.161Z,72.50
2018-07-21T00:09:43.094Z,73.50
2018-07-21T00:12:11.175Z,73.60
2018-07-21T00:14:39.188Z,74.50
2018-07-21T00:17:07.517Z,74.10
2018-07-21T00:19:35.598Z,74.40
2018-07-21T00:22:03.600Z,74.70
2018-07-21T00:24:31.755Z,76.20
2018-07-21T00:27:00.072Z,75.90
2018-07-21T00:36:14.851Z,77.30
2018-07-21T00:38:43.050Z,78.50
2018-07-21T00:41:11.204Z,79.40
2018-07-21T00:43:39.259Z,80.10
2018-07-21T00:46:07.590Z,81.30
2018-07-21T00:48:35.628Z,83.20
2018-07-21T00:51:03.730Z,84.30
2018-07-21T00:53:32.241Z,85.50
2018-07-21T00:56:01.278Z,86.90
2018-07-21T00:58:29.205Z,88.00
2018-07-21T01:00:57.409Z,89.90
2018-07-21T01:03:26.235Z,90.40
2018-07-21T01:05:54.620Z,91.10
2018-07-21T01:08:22.516Z,92.00
2018-07-21T01:10:50.766Z,92.40
2018-07-21T01:13:19.108Z,93.00
2018-07-21T01:15:47.149Z,93.50
2018-07-21T01:18:15.174Z,94.20
2018-07-21T01:20:43.084Z,94.50
2018-07-21T01:23:11.114Z,94.80
2018-07-21T01:25:38.926Z,95.10
2018-07-21T01:28:06.796Z,95.30
2018-07-21T01:30:34.780Z,95.50
2018-07-21T01:33:02.791Z,95.90
2018-07-21T01:35:30.728Z,96.10
2018-07-21T01:37:58.658Z,96.10
2018-07-21T01:40:26.638Z,96.30
2018-07-21T01:42:55.009Z,96.40
2018-07-21T01:45:23.450Z,96.40
2018-07-21T01:47:51.318Z,96.50
2018-07-21T01:50:19.312Z,96.40
2018-07-21T01:52:47.369Z,96.20
2018-07-21T01:55:15.304Z,96.10
2018-07-21T01:57:43.146Z,96.00
2018-07-21T02:00:11.174Z,95.90
2018-07-21T02:02:39.166Z,95.90
2018-07-21T02:05:07.130Z,95.70
2018-07-21T02:07:35.492Z,95.80
2018-07-21T02:10:03.558Z,95.80
2018-07-21T02:12:31.650Z,95.90
2018-07-21T02:14:59.656Z,96.10
2018-07-21T02:17:27.821Z,96.40
2018-07-21T02:19:55.792Z,96.60
2018-07-21T02:22:24.005Z,96.80
2018-07-21T02:24:51.996Z,97.10
2018-07-21T02:27:19.928Z,97.30
2018-07-21T02:29:47.796Z,97.40
2018-07-21T02:32:15.677Z,97.60
2018-07-21T02:34:43.868Z,98.00
2018-07-21T02:37:11.856Z,98.00
2018-07-21T02:42:15.487Z,98.20
2018-07-21T02:44:43.501Z,98.40
2018-07-21T02:47:11.540Z,98.40
2018-07-21T02:49:39.536Z,98.10
2018-07-21T03:02:00.528Z,96.60
2018-07-21T03:04:29.563Z,97.00
2018-07-21T03:06:57.495Z,96.80
2018-07-21T03:09:25.601Z,96.70
2018-07-21T03:11:53.724Z,96.70
2018-07-21T03:14:21.805Z,96.50
2018-07-21T03:16:49.824Z,96.20
2018-07-21T03:19:18.654Z,96.10
2018-07-21T03:21:46.761Z,96.30
2018-07-21T03:24:14.929Z,95.50
2018-07-21T03:26:43.378Z,95.30
2018-07-21T03:29:11.468Z,95.60
2018-07-21T03:31:39.433Z,94.90
2018-07-21T03:34:07.410Z,95.40
2018-07-21T03:36:35.363Z,94.80
2018-07-21T03:39:03.446Z,94.60
2018-07-21T03:41:31.433Z,94.50
2018-07-21T03:43:59.556Z,94.30
2018-07-21T03:46:27.636Z,94.10
2018-07-21T03:48:56.020Z,94.10
2018-07-21T03:56:19.602Z,93.50
2018-07-21T03:58:47.432Z,93.60
2018-07-21T04:01:15.554Z,93.50
2018-07-21T04:06:10.972Z,93.50
2018-07-21T04:08:38.907Z,93.60
2018-07-21T04:11:06.704Z,93.70
2018-07-21T04:13:34.432Z,93.80
2018-07-21T04:16:02.244Z,93.40
2018-07-21T04:18:30.047Z,93.60
2018-07-21T04:20:57.963Z,93.60
2018-07-21T04:23:26.384Z,93.60
2018-07-21T04:25:54.330Z,93.50
2018-07-21T04:33:18.148Z,92.40
2018-07-21T04:35:46.058Z,92.60
2018-07-21T04:38:13.832Z,92.40
2018-07-21T04:40:41.661Z,92.00
2018-07-21T04:43:09.737Z,91.80
2018-07-21T04:45:37.606Z,91.50
2018-07-21T04:49:34.840Z,91.30
2018-07-21T04:52:02.968Z,91.10
2018-07-21T04:54:30.860Z,90.60
2018-07-21T04:56:58.880Z,90.50
2018-07-21T04:59:26.774Z,90.70
2018-07-21T05:01:54.756Z,90.10
2018-07-21T05:04:22.834Z,89.60
2018-07-21T05:06:50.665Z,89.20
2018-07-21T05:09:18.520Z,88.80
2018-07-21T05:11:47.518Z,88.30
2018-07-21T05:14:15.479Z,87.60
2018-07-21T05:16:43.571Z,87.10
2018-07-21T05:19:11.463Z,86.50
2018-07-21T05:21:39.324Z,86.00
2018-07-21T05:24:08.283Z,85.50
2018-07-21T05:26:36.420Z,84.70
2018-07-21T05:29:05.548Z,84.10
2018-07-21T05:31:33.676Z,83.50
2018-07-21T05:34:01.656Z,83.90
2018-07-21T05:36:29.560Z,82.80
2018-07-21T05:38:57.704Z,83.30
2018-07-21T05:41:26.249Z,82.10
2018-07-21T05:43:54.777Z,81.60
2018-07-21T05:46:22.813Z,81.50
2018-07-21T05:48:50.792Z,80.80
2018-07-21T05:51:18.746Z,81.10
2018-07-21T05:53:46.925Z,79.90
2018-07-21T05:56:14.823Z,79.20
2018-07-21T05:58:43.598Z,78.70
2018-07-21T06:01:11.989Z,77.30
2018-07-21T06:03:41.736Z,76.60
2018-07-21T06:06:11.913Z,75.80
2018-07-21T06:08:41.189Z,73.80
2018-07-21T06:11:11.089Z,71.50
2018-07-21T06:13:40.921Z,70.40
2018-07-21T06:16:09.793Z,69.80
2018-07-21T06:18:39.583Z,69.80
2018-07-21T06:21:08.563Z,69.10
2018-07-21T06:23:37.442Z,69.10
2018-07-21T06:26:06.184Z,69.00
2018-07-21T06:31:04.117Z,68.20
2018-07-21T06:33:33.446Z,68.30
2018-07-21T06:36:02.619Z,67.60
2018-07-21T06:38:32.313Z,67.10
2018-07-21T06:41:01.779Z,66.90
2018-07-21T06:43:31.080Z,66.70
2018-07-21T06:46:00.464Z,65.40
2018-07-21T06:48:29.877Z,66.70
2018-07-21T06:50:59.171Z,66.40
2018-07-21T06:53:28.467Z,67.00
2018-07-21T06:55:57.671Z,66.70
2018-07-21T06:58:26.817Z,66.30
2018-07-21T07:00:56.446Z,67.40
2018-07-21T07:03:26.140Z,65.90
2018-07-21T07:05:56.030Z,65.30
2018-07-21T07:08:25.719Z,64.10
2018-07-21T07:10:55.615Z,63.30
2018-07-21T07:13:25.245Z,62.50
2018-07-21T07:15:55.351Z,62.00
2018-07-21T07:18:24.421Z,61.20
2018-07-21T07:20:53.079Z,62.30
2018-07-21T07:23:22.131Z,61.60
2018-07-21T07:25:51.264Z,61.70
2018-07-21T07:28:20.225Z,61.60
2018-07-21T07:30:49.611Z,60.50
2018-07-21T07:33:18.578Z,59.10
2018-07-21T07:35:47.585Z,58.60
2018-07-21T07:38:17.155Z,58.50
2018-07-21T07:40:46.007Z,58.00
2018-07-21T07:43:14.921Z,58.20
2018-07-21T07:45:44.845Z,58.20
2018-07-21T07:48:14.413Z,58.30
2018-07-21T07:50:43.764Z,58.00
2018-07-21T07:53:12.958Z,57.60
2018-07-21T07:55:41.988Z,57.20
2018-07-21T07:58:11.163Z,56.40
2018-07-21T08:00:40.140Z,55.30
2018-07-21T08:03:09.174Z,55.70
2018-07-21T08:05:38.232Z,55.60
2018-07-21T08:08:07.262Z,55.20
2018-07-21T08:10:36.333Z,54.70
2018-07-21T08:13:04.918Z,54.90
2018-07-21T08:15:33.583Z,55.10
2018-07-21T08:18:02.503Z,54.90
2018-07-21T08:20:31.536Z,55.40
2018-07-21T08:23:00.338Z,55.40
2018-07-21T08:25:29.048Z,55.30
2018-07-21T08:27:57.765Z,55.40
2018-07-21T08:30:27.094Z,55.80
2018-07-21T08:32:56.072Z,56.10
2018-07-21T08:35:25.020Z,56.30
2018-07-21T08:37:54.221Z,56.40
2018-07-21T08:40:23.052Z,56.80
2018-07-21T08:42:52.431Z,56.90
2018-07-21T08:45:21.169Z,56.90
2018-07-21T08:47:50.191Z,57.00
2018-07-21T08:50:19.320Z,57.50
2018-07-21T08:52:48.142Z,57.50
2018-07-21T08:55:16.954Z,57.50
2018-07-21T08:57:45.642Z,57.50
2018-07-21T09:00:14.879Z,58.10
2018-07-21T09:02:43.823Z,58.30
2018-07-21T09:05:12.545Z,58.30
2018-07-21T09:07:41.283Z,58.40
2018-07-21T09:12:39.094Z,58.20
2018-07-21T09:15:07.821Z,58.70
2018-07-21T09:17:36.838Z,59.20
2018-07-21T09:22:34.077Z,59.90
2018-07-21T09:25:02.791Z,61.00
2018-07-21T09:27:31.538Z,60.90
2018-07-21T09:30:00.428Z,60.50
2018-07-21T09:32:29.169Z,61.10
2018-07-21T09:34:57.908Z,59.70
2018-07-21T09:37:26.796Z,60.10
2018-07-21T09:39:55.454Z,60.10
2018-07-21T09:42:24.302Z,60.00
2018-07-21T09:44:53.114Z,59.90
2018-07-21T09:47:22.022Z,60.00
2018-07-21T09:50:17.750Z,60.00
2018-07-21T09:52:46.322Z,59.70
2018-07-21T09:55:15.038Z,60.00
2018-07-21T09:57:43.848Z,59.90
2018-07-21T10:00:16.854Z,59.60
2018-07-21T10:02:45.760Z,59.40
2018-07-21T10:05:14.630Z,59.60
2018-07-21T10:07:43.518Z,59.10
2018-07-21T10:10:12.244Z,58.90
2018-07-21T10:12:40.970Z,59.00
2018-07-21T10:15:10.364Z,58.90
2018-07-21T10:17:40.142Z,58.80
2018-07-21T10:20:09.366Z,58.60
2018-07-21T10:22:38.196Z,58.00
2018-07-21T10:25:12.305Z,57.80
2018-07-21T10:27:46.520Z,57.60
2018-07-21T10:30:15.303Z,57.70
2018-07-21T10:32:44.045Z,57.50
2018-07-21T10:35:12.701Z,57.30
2018-07-21T10:37:41.616Z,57.20
2018-07-21T10:40:10.247Z,57.20
2018-07-21T10:42:38.915Z,56.50
2018-07-21T10:45:07.798Z,56.20
2018-07-21T10:47:36.488Z,56.30
2018-07-21T10:50:05.912Z,56.40
2018-07-21T10:52:34.643Z,56.60
2018-07-21T10:55:03.826Z,56.40
2018-07-21T10:57:32.746Z,56.80
2018-07-21T11:00:01.357Z,56.80
2018-07-21T11:02:29.963Z,56.90
2018-07-21T11:04:58.744Z,56.40
2018-07-21T11:09:56.426Z,55.80
2018-07-21T11:12:25.393Z,55.70
2018-07-21T11:14:54.342Z,55.40
2018-07-21T11:17:23.040Z,55.10
2018-07-21T11:19:51.852Z,54.90
2018-07-21T11:22:21.948Z,54.70
2018-07-21T11:24:50.642Z,54.70
2018-07-21T11:27:19.300Z,54.10
2018-07-21T11:29:48.053Z,53.50
2018-07-21T11:32:17.495Z,52.40
2018-07-21T11:34:46.701Z,52.80
2018-07-21T11:37:15.824Z,52.60
2018-07-21T11:39:54.892Z,52.00
2018-07-21T11:50:59.632Z,52.00
2018-07-21T11:59:13.967Z,53.00
2018-07-21T12:01:42.801Z,53.50
2018-07-21T12:04:11.635Z,53.50
2018-07-21T12:06:43.324Z,53.20
2018-07-21T12:09:12.467Z,52.70
2018-07-21T12:11:44.986Z,52.80
2018-07-21T12:14:16.807Z,53.00
2018-07-21T12:16:46.138Z,52.90
2018-07-21T12:19:15.053Z,52.80
2018-07-21T12:21:43.931Z,52.90
2018-07-21T12:24:14.618Z,53.40
2018-07-21T12:26:45.400Z,53.40
2018-07-21T12:29:21.560Z,52.70
2018-07-21T12:31:55.502Z,51.50
2018-07-21T12:36:54.208Z,50.60
2018-07-21T12:39:22.953Z,50.90
2018-07-21T12:41:51.724Z,51.00
2018-07-21T12:44:20.277Z,50.90
2018-07-21T12:46:48.834Z,50.80
2018-07-21T12:49:17.453Z,50.30
2018-07-21T12:51:46.151Z,50.20
2018-07-21T12:54:14.812Z,50.80
2018-07-21T12:56:43.717Z,51.00
2018-07-21T12:59:12.456Z,51.40
2018-07-21T13:10:57.213Z,52.00
2018-07-21T13:13:25.867Z,52.40
2018-07-21T13:15:54.420Z,53.00
2018-07-21T13:18:23.624Z,53.40
2018-07-21T13:20:53.374Z,53.70
2018-07-21T13:23:23.155Z,54.20
2018-07-21T13:25:52.765Z,54.60
2018-07-21T13:28:22.539Z,54.90
2018-07-21T13:30:51.703Z,55.20
2018-07-21T13:33:26.686Z,55.80
2018-07-21T13:35:56.254Z,56.30
2018-07-21T13:38:25.644Z,56.70
2018-07-21T13:40:55.316Z,57.00
2018-07-21T13:43:25.807Z,57.40
2018-07-21T13:45:55.700Z,58.00
2018-07-21T13:48:25.204Z,58.30
2018-07-21T13:50:56.348Z,58.50
2018-07-21T13:53:26.055Z,59.10
2018-07-21T13:55:55.332Z,59.50
2018-07-21T13:58:24.616Z,59.70
2018-07-21T14:03:23.189Z,60.50
2018-07-21T14:05:53.010Z,61.00
2018-07-21T14:08:22.186Z,61.30
2018-07-21T14:10:51.800Z,61.90
2018-07-21T14:13:21.297Z,62.30
2018-07-21T14:15:50.364Z,62.40
2018-07-21T14:18:19.250Z,62.50
2018-07-21T14:20:47.999Z,63.00
2018-07-21T14:23:16.741Z,63.50
2018-07-21T14:25:45.956Z,64.10
2018-07-21T14:28:16.070Z,64.50
2018-07-21T14:30:46.415Z,65.00
2018-07-21T14:33:15.947Z,65.30
2018-07-21T14:35:46.448Z,65.70
2018-07-21T14:38:16.971Z,65.80
2018-07-21T14:40:45.649Z,66.30
2018-07-21T14:43:14.213Z,66.60
2018-07-21T14:48:10.386Z,67.40
2018-07-21T14:50:39.101Z,67.40
2018-07-21T14:53:07.843Z,67.70
2018-07-21T14:55:36.576Z,67.70
2018-07-21T14:58:04.563Z,67.70
2018-07-21T15:00:32.921Z,67.80
2018-07-21T15:03:01.544Z,67.50
2018-07-21T15:05:30.386Z,67.70
2018-07-21T15:07:59.067Z,67.60
2018-07-21T15:10:27.898Z,67.60
2018-07-21T15:12:56.576Z,67.70
2018-07-21T15:15:25.315Z,67.70
2018-07-21T15:17:54.130Z,67.90
2018-07-21T15:20:22.906Z,67.90
2018-07-21T15:22:50.872Z,68.20
2018-07-21T15:25:19.578Z,68.20
2018-07-21T15:27:48.163Z,68.20
2018-07-21T15:30:16.738Z,68.40
2018-07-21T15:32:44.582Z,68.90
2018-07-21T15:37:40.124Z,69.70
2018-07-21T15:40:08.741Z,70.10
2018-07-21T15:42:36.689Z,70.40
2018-07-21T15:45:04.569Z,71.70
2018-07-21T15:47:32.401Z,71.90
2018-07-21T15:50:01.332Z,71.20
2018-07-21T15:52:29.369Z,71.30
2018-07-21T15:54:57.412Z,71.40
2018-07-21T15:57:25.803Z,71.70
2018-07-21T15:59:54.357Z,71.80
2018-07-21T16:02:23.309Z,72.20
2018-07-21T16:04:52.018Z,72.30
2018-07-21T16:07:20.648Z,72.50
2018-07-21T16:09:48.723Z,72.70
2018-07-21T16:12:17.372Z,73.00
2018-07-21T16:14:46.230Z,73.20
2018-07-21T16:17:14.914Z,73.40
2018-07-21T16:19:43.711Z,73.70
2018-07-21T16:22:12.487Z,73.70
2018-07-21T16:24:41.104Z,73.90
2018-07-21T16:27:09.835Z,74.00
2018-07-21T16:29:38.433Z,74.20
2018-07-21T16:32:11.067Z,74.20
2018-07-21T16:34:39.977Z,74.30
2018-07-21T16:37:09.619Z,74.40
2018-07-21T16:39:38.376Z,74.60
2018-07-21T16:42:07.313Z,75.00
2018-07-21T16:44:35.929Z,75.10
2018-07-21T16:47:04.838Z,75.20
2018-07-21T16:49:33.425Z,75.30
2018-07-21T16:52:02.044Z,75.40
2018-07-21T16:54:30.764Z,75.50
2018-07-21T16:56:59.554Z,75.80
2018-07-21T16:59:28.456Z,75.80
2018-07-21T17:01:57.179Z,76.10
2018-07-21T17:04:26.248Z,76.10
2018-07-21T17:06:55.001Z,76.20
2018-07-21T17:09:23.766Z,76.60
2018-07-21T17:11:52.590Z,76.90
2018-07-21T17:14:21.340Z,77.10
2018-07-21T17:16:49.963Z,77.20
2018-07-21T17:19:18.577Z,77.50
2018-07-21T17:21:47.262Z,77.50
2018-07-21T17:24:15.998Z,77.80
2018-07-21T17:26:45.115Z,78.00
2018-07-21T17:29:13.797Z,78.30
2018-07-21T17:31:42.306Z,78.80
2018-07-21T17:34:11.085Z,79.10
2018-07-21T17:36:39.720Z,79.70
2018-07-21T17:39:09.398Z,80.40
2018-07-21T17:41:38.130Z,80.90
2018-07-21T17:44:06.926Z,81.30
2018-07-21T17:46:36.371Z,81.70
2018-07-21T17:49:05.819Z,82.10
2018-07-21T17:51:34.728Z,82.60
2018-07-21T17:54:03.770Z,83.20
2018-07-21T17:56:32.487Z,84.10
2018-07-21T17:59:01.244Z,84.90
2018-07-21T18:01:30.000Z,85.60
2018-07-21T18:03:59.062Z,86.40
2018-07-21T18:06:28.203Z,87.40
2018-07-21T18:08:58.016Z,88.50
2018-07-21T18:11:26.642Z,89.70
2018-07-21T18:13:55.385Z,90.40
2018-07-21T18:16:24.635Z,91.00
2018-07-21T18:18:53.493Z,91.50
2018-07-21T18:23:50.596Z,93.00
2018-07-21T18:26:19.434Z,93.50
2018-07-21T18:28:48.148Z,94.00
2018-07-21T18:31:16.870Z,94.50
2018-07-21T18:33:46.238Z,95.00
2018-07-21T18:36:15.368Z,95.30
2018-07-21T18:38:44.684Z,95.70
2018-07-21T18:41:14.533Z,96.00
2018-07-21T18:43:44.071Z,96.30
2018-07-21T18:46:13.362Z,96.60
2018-07-21T18:48:43.032Z,97.00
2018-07-21T18:51:12.165Z,97.40
2018-07-21T18:53:41.096Z,97.60
2018-07-21T18:59:04.095Z,98.20
2018-07-21T19:01:33.658Z,98.50
2018-07-21T19:04:02.029Z,98.80
2018-07-21T19:06:30.972Z,99.50
2018-07-21T19:09:05.902Z,99.30
2018-07-21T19:11:34.391Z,99.60
2018-07-21T19:14:02.312Z,99.90
2018-07-21T19:16:35.523Z,99.90
2018-07-21T19:19:03.255Z,99.90
2018-07-21T19:21:31.030Z,99.90
2018-07-21T19:23:59.230Z,99.90
2018-07-21T19:26:33.088Z,99.90
2018-07-21T19:29:01.268Z,99.90
2018-07-21T19:31:29.681Z,99.90
2018-07-21T19:33:58.122Z,99.90
2018-07-21T19:36:27.077Z,99.90
2018-07-21T19:38:54.838Z,99.90
2018-07-21T19:42:32.533Z,99.90
2018-07-21T19:45:00.828Z,99.90
2018-07-21T19:47:30.197Z,99.90
2018-07-21T19:49:57.974Z,99.90
2018-07-21T19:52:26.678Z,99.90
2018-07-21T19:54:54.511Z,99.90
2018-07-21T19:57:22.179Z,99.90
2018-07-21T19:59:49.928Z,99.90
2018-07-21T20:02:18.464Z,99.90
2018-07-21T20:04:46.185Z,99.90
2018-07-21T20:07:14.089Z,99.90
2018-07-21T20:09:43.438Z,99.90
2018-07-21T20:12:12.050Z,99.90
2018-07-21T20:14:40.073Z,99.90
2018-07-21T20:17:10.034Z,99.90
2018-07-21T20:19:38.852Z,99.90
2018-07-21T20:22:08.187Z,99.90
2018-07-21T20:24:37.795Z,99.90
2018-07-21T20:27:12.173Z,99.90
2018-07-21T20:29:41.507Z,99.90
2018-07-21T20:32:11.565Z,99.90
2018-07-21T20:34:40.755Z,99.90
2018-07-21T20:37:10.376Z,99.90
2018-07-21T20:39:39.368Z,99.90
2018-07-21T20:42:08.189Z,99.90
2018-07-21T20:44:36.867Z,99.90
2018-07-21T20:49:34.592Z,99.90
2018-07-21T20:52:03.861Z,99.90
2018-07-21T20:54:34.483Z,99.90
2018-07-21T20:57:03.082Z,99.90
2018-07-21T20:59:31.029Z,99.90
2018-07-21T21:01:59.241Z,99.90
2018-07-21T21:04:27.245Z,99.90
2018-07-21T21:06:55.135Z,99.90
2018-07-21T21:09:23.036Z,99.90
2018-07-21T21:11:51.633Z,99.90
2018-07-21T21:14:20.279Z,99.90
2018-07-21T21:16:48.165Z,99.90
2018-07-21T21:19:16.928Z,99.90
2018-07-21T21:21:45.383Z,99.90
2018-07-21T21:24:14.231Z,99.90
2018-07-21T21:26:41.904Z,99.90
2018-07-21T21:29:10.585Z,99.90
2018-07-21T21:31:38.759Z,99.90
2018-07-21T21:34:06.736Z,99.90
2018-07-21T21:36:35.014Z,99.90
2018-07-21T21:39:02.851Z,99.90
2018-07-21T21:41:30.545Z,99.90
2018-07-21T21:46:26.073Z,99.90
2018-07-21T21:48:53.751Z,99.90
2018-07-21T21:51:21.476Z,99.90
2018-07-21T21:53:49.164Z,99.90
2018-07-21T21:56:17.102Z,99.90
2018-07-21T21:58:45.381Z,99.90
2018-07-21T22:01:14.172Z,99.90
2018-07-21T22:03:43.415Z,99.90
2018-07-21T22:06:11.739Z,99.90
2018-07-21T22:08:40.098Z,99.90
2018-07-21T22:11:08.701Z,99.90
2018-07-21T22:13:36.535Z,99.90
2018-07-21T22:16:05.091Z,99.90
2018-07-21T22:18:33.279Z,99.90
2018-07-21T22:22:30.934Z,99.90
2018-07-21T22:24:59.287Z,99.90
2018-07-21T22:27:27.239Z,99.90
2018-07-21T22:29:56.603Z,99.90
2018-07-21T22:32:25.563Z,99.90
2018-07-21T22:34:54.019Z,99.90
2018-07-21T22:37:23.001Z,99.90
2018-07-21T22:39:51.227Z,99.90
2018-07-21T22:42:18.991Z,99.90
2018-07-21T22:44:46.979Z,99.90
2018-07-21T22:47:14.795Z,99.90
2018-07-21T22:49:42.565Z,99.90
2018-07-21T22:52:11.383Z,99.90
2018-07-21T22:54:40.361Z,99.90
2018-07-21T22:57:08.276Z,99.90
2018-07-21T22:59:36.137Z,99.90
2018-07-21T23:02:03.985Z,99.90
2018-07-21T23:04:31.774Z,99.90
2018-07-21T23:06:59.607Z,99.90
2018-07-21T23:09:27.415Z,99.90
2018-07-21T23:14:23.424Z,99.90
2018-07-21T23:16:51.290Z,99.90
2018-07-21T23:19:19.067Z,99.90
2018-07-21T23:21:46.829Z,99.90
2018-07-21T23:24:14.669Z,99.90
2018-07-21T23:26:42.541Z,99.90
2018-07-21T23:29:10.449Z,99.90
2018-07-21T23:31:38.389Z,99.90
2018-07-21T23:34:06.202Z,99.90
2018-07-21T23:36:34.337Z,99.90
2018-07-21T23:39:02.162Z,99.90
2018-07-21T23:41:30.023Z,99.90
2018-07-21T23:43:57.836Z,99.90
2018-07-21T23:46:25.893Z,99.90
2018-07-21T23:48:53.762Z,99.90
2018-07-21T23:51:21.639Z,99.90
2018-07-21T23:53:49.485Z,99.90
2018-07-21T23:56:17.263Z,99.90
2018-07-21T23:58:45.027Z,99.90
